createdAt,value
2023-05-01T00:00:05.783Z,10.02
2023-05-01T00:01:05.714Z,10.02
2023-05-01T00:02:05.696Z,9.95
2023-05-01T00:03:05.756Z,9.97
2023-05-01T00:04:05.771Z,9.95
2023-05-01T00:05:05.821Z,9.92
2023-05-01T00:06:05.743Z,9.89
2023-05-01T00:07:05.644Z,9.87
2023-05-01T00:08:05.630Z,9.91
2023-05-01T00:09:05.636Z,9.84
2023-05-01T00:10:05.621Z,9.86
2023-05-01T00:11:05.628Z,9.77
2023-05-01T00:12:05.593Z,9.80
2023-05-01T00:13:05.577Z,9.76
2023-05-01T00:14:05.579Z,9.74
2023-05-01T00:15:05.590Z,9.83
2023-05-01T00:16:05.574Z,9.83
2023-05-01T00:17:05.535Z,9.76
2023-05-01T00:18:05.565Z,9.79
2023-05-01T00:19:05.533Z,9.74
2023-05-01T00:20:05.513Z,9.82
2023-05-01T00:21:05.517Z,9.82
2023-05-01T00:22:05.480Z,9.79
2023-05-01T00:23:05.461Z,9.68
2023-05-01T00:24:05.469Z,9.72
2023-05-01T00:25:05.438Z,9.66
2023-05-01T00:26:05.484Z,9.72
2023-05-01T00:27:05.422Z,9.69
2023-05-01T00:28:05.408Z,9.64
2023-05-01T00:29:05.399Z,9.76
2023-05-01T00:30:05.391Z,9.74
2023-05-01T00:31:05.426Z,9.77
2023-05-01T00:32:05.462Z,9.66
2023-05-01T00:33:05.402Z,9.74
2023-05-01T00:34:05.338Z,9.73
2023-05-01T00:35:05.334Z,9.73
2023-05-01T00:36:05.316Z,9.73
2023-05-01T00:37:05.319Z,9.74
2023-05-01T00:38:05.297Z,9.68
2023-05-01T00:39:05.295Z,9.68
2023-05-01T00:40:05.295Z,9.66
2023-05-01T00:41:05.266Z,9.73
2023-05-01T00:42:05.270Z,9.69
2023-05-01T00:43:05.247Z,9.69
2023-05-01T00:44:05.238Z,9.72
2023-05-01T00:45:05.235Z,9.59
2023-05-01T00:46:05.250Z,9.62
2023-05-01T00:47:05.232Z,9.72
2023-05-01T00:48:05.248Z,9.59
2023-05-01T00:49:05.182Z,9.61
2023-05-01T00:50:05.178Z,9.56
2023-05-01T00:51:05.181Z,9.58
2023-05-01T00:52:05.152Z,9.59
2023-05-01T00:53:05.144Z,9.54
2023-05-01T00:54:05.126Z,9.61
2023-05-01T00:55:05.113Z,9.51
2023-05-01T00:56:05.098Z,9.59
2023-05-01T00:57:05.089Z,9.37
2023-05-01T00:58:05.081Z,9.50
2023-05-01T00:59:05.078Z,9.50
2023-05-01T01:00:05.061Z,9.41
2023-05-01T01:01:05.086Z,9.44
2023-05-01T01:02:05.027Z,9.44
2023-05-01T01:03:05.105Z,9.36
2023-05-01T01:04:05.046Z,9.36
2023-05-01T01:05:05.033Z,9.31
2023-05-01T01:06:05.007Z,9.31
2023-05-01T01:07:04.979Z,9.28
2023-05-01T01:08:04.959Z,9.32
2023-05-01T01:09:04.962Z,9.28
2023-05-01T01:10:04.954Z,9.21
2023-05-01T01:11:04.929Z,9.21
2023-05-01T01:12:04.913Z,9.18
2023-05-01T01:13:04.906Z,9.19
2023-05-01T01:14:04.905Z,9.10
2023-05-01T01:15:04.898Z,9.14
2023-05-01T01:16:04.871Z,9.13
2023-05-01T01:17:05.066Z,9.13
2023-05-01T01:18:04.937Z,9.06
2023-05-01T01:19:04.869Z,9.14
2023-05-01T01:20:04.836Z,9.18
2023-05-01T01:21:04.823Z,9.21
2023-05-01T01:22:04.806Z,9.22
2023-05-01T01:23:04.805Z,9.19
2023-05-01T01:24:04.804Z,9.23
2023-05-01T01:25:04.771Z,9.26
2023-05-01T01:26:04.774Z,9.26
2023-05-01T01:27:04.767Z,9.22
2023-05-01T01:28:04.741Z,9.29
2023-05-01T01:29:04.734Z,9.29
2023-05-01T01:30:04.742Z,9.26
2023-05-01T01:31:04.748Z,9.29
2023-05-01T01:32:04.689Z,9.31
2023-05-01T01:33:04.774Z,9.26
2023-05-01T01:34:04.680Z,9.31
2023-05-01T01:35:04.707Z,9.25
2023-05-01T01:36:04.654Z,9.34
2023-05-01T01:37:04.632Z,9.32
2023-05-01T01:38:04.628Z,9.25
2023-05-01T01:39:04.611Z,9.28
2023-05-01T01:40:04.645Z,9.21
2023-05-01T01:41:04.601Z,9.29
2023-05-01T01:42:04.579Z,9.29
2023-05-01T01:43:04.570Z,9.26
2023-05-01T01:44:04.562Z,9.23
2023-05-01T01:45:04.579Z,9.26
2023-05-01T01:46:04.568Z,9.25
2023-05-01T01:47:04.524Z,9.22
2023-05-01T01:48:04.552Z,9.19
2023-05-01T01:49:04.527Z,9.10
2023-05-01T01:50:04.494Z,9.21
2023-05-01T01:51:04.507Z,9.19
2023-05-01T01:52:04.495Z,9.13
2023-05-01T01:53:04.474Z,9.18
2023-05-01T01:54:04.448Z,9.21
2023-05-01T01:55:04.435Z,9.04
2023-05-01T01:56:04.451Z,9.11
2023-05-01T01:57:04.425Z,9.03
2023-05-01T01:58:04.438Z,9.06
2023-05-01T01:59:04.397Z,9.03
2023-05-01T02:00:04.383Z,9.02
2023-05-01T02:01:04.374Z,9.03
2023-05-01T02:02:04.477Z,9.03
2023-05-01T02:03:04.448Z,9.02
2023-05-01T02:04:04.419Z,9.08
2023-05-01T02:05:04.329Z,9.11
2023-05-01T02:06:04.469Z,9.14
2023-05-01T02:07:04.426Z,9.10
2023-05-01T02:08:04.309Z,9.13
2023-05-01T02:09:04.304Z,9.08
2023-05-01T02:10:04.273Z,9.03
2023-05-01T02:11:04.260Z,9.03
2023-05-01T02:12:04.251Z,9.06
2023-05-01T02:13:04.269Z,9.03
2023-05-01T02:14:04.229Z,9.02
2023-05-01T02:15:04.227Z,9.04
2023-05-01T02:16:04.250Z,9.04
2023-05-01T02:17:04.222Z,9.00
2023-05-01T02:18:04.222Z,9.04
2023-05-01T02:19:04.175Z,9.14
2023-05-01T02:20:04.187Z,9.08
2023-05-01T02:21:04.158Z,9.16
2023-05-01T02:22:04.143Z,9.04
2023-05-01T02:23:04.151Z,9.06
2023-05-01T02:24:04.124Z,9.06
2023-05-01T02:25:04.112Z,9.00
2023-05-01T02:26:04.156Z,9.02
2023-05-01T02:27:04.100Z,8.99
2023-05-01T02:28:04.092Z,9.03
2023-05-01T02:29:04.073Z,8.99
2023-05-01T02:30:04.054Z,8.92
2023-05-01T02:31:04.050Z,8.84
2023-05-01T02:32:04.114Z,8.88
2023-05-01T02:33:04.069Z,8.95
2023-05-01T02:34:04.010Z,8.85
2023-05-01T02:35:04.000Z,8.94
2023-05-01T02:36:03.997Z,8.94
2023-05-01T02:37:04.005Z,8.84
2023-05-01T02:38:03.967Z,8.85
2023-05-01T02:39:03.993Z,8.85
2023-05-01T02:40:03.944Z,8.92
2023-05-01T02:41:03.945Z,8.87
2023-05-01T02:42:03.932Z,8.76
2023-05-01T02:43:03.906Z,8.73
2023-05-01T02:44:03.895Z,8.84
2023-05-01T02:45:03.900Z,8.85
2023-05-01T02:46:03.922Z,8.82
2023-05-01T02:47:03.930Z,8.73
2023-05-01T02:48:03.907Z,8.81
2023-05-01T02:49:03.856Z,8.79
2023-05-01T02:50:03.839Z,8.79
2023-05-01T02:51:03.858Z,8.78
2023-05-01T02:52:03.811Z,8.81
2023-05-01T02:53:03.841Z,8.79
2023-05-01T02:54:03.789Z,8.78
2023-05-01T02:55:03.806Z,8.76
2023-05-01T02:56:03.786Z,8.87
2023-05-01T02:57:03.754Z,8.79
2023-05-01T02:58:03.747Z,8.76
2023-05-01T02:59:03.739Z,8.82
2023-05-01T03:00:03.729Z,8.82
2023-05-01T03:01:03.784Z,8.88
2023-05-01T03:02:03.703Z,8.84
2023-05-01T03:03:03.772Z,8.87
2023-05-01T03:04:03.705Z,9.02
2023-05-01T03:05:03.668Z,8.99
2023-05-01T03:06:03.729Z,9.06
2023-05-01T03:07:03.649Z,9.00
2023-05-01T03:08:03.632Z,9.11
2023-05-01T03:09:03.629Z,9.06
2023-05-01T03:10:03.617Z,9.11
2023-05-01T03:11:03.617Z,9.18
2023-05-01T03:12:03.635Z,9.21
2023-05-01T03:13:03.580Z,9.18
2023-05-01T03:14:03.586Z,9.28
2023-05-01T03:15:03.561Z,9.26
2023-05-01T03:16:03.645Z,9.31
2023-05-01T03:17:03.527Z,9.28
2023-05-01T03:18:03.580Z,9.36
2023-05-01T03:19:03.537Z,9.29
2023-05-01T03:20:03.499Z,9.29
2023-05-01T03:21:03.510Z,9.36
2023-05-01T03:22:03.490Z,9.32
2023-05-01T03:23:03.481Z,9.41
2023-05-01T03:24:03.455Z,9.44
2023-05-01T03:25:03.452Z,9.39
2023-05-01T03:26:03.445Z,9.43
2023-05-01T03:27:03.468Z,9.37
2023-05-01T03:28:03.413Z,9.46
2023-05-01T03:29:03.399Z,9.43
2023-05-01T03:30:03.387Z,9.37
2023-05-01T03:31:03.389Z,9.28
2023-05-01T03:32:03.411Z,9.47
2023-05-01T03:33:03.466Z,9.47
2023-05-01T03:34:03.342Z,9.44
2023-05-01T03:35:03.378Z,9.47
2023-05-01T03:36:03.328Z,9.41
2023-05-01T03:37:03.314Z,9.37
2023-05-01T03:38:03.307Z,9.37
2023-05-01T03:39:03.284Z,9.39
2023-05-01T03:40:03.279Z,9.40
2023-05-01T03:41:03.272Z,9.43
2023-05-01T03:42:03.274Z,9.43
2023-05-01T03:43:03.286Z,9.44
2023-05-01T03:44:03.237Z,9.39
2023-05-01T03:45:03.227Z,9.47
2023-05-01T03:46:03.258Z,9.48
2023-05-01T03:47:03.193Z,9.43
2023-05-01T03:48:03.225Z,9.40
2023-05-01T03:49:03.198Z,9.47
2023-05-01T03:50:03.202Z,9.48
2023-05-01T03:51:03.149Z,9.50
2023-05-01T03:52:03.140Z,9.41
2023-05-01T03:53:03.127Z,9.47
2023-05-01T03:54:03.119Z,9.36
2023-05-01T03:55:03.148Z,9.36
2023-05-01T03:56:03.115Z,9.43
2023-05-01T03:57:03.094Z,9.37
2023-05-01T03:58:03.073Z,9.25
2023-05-01T03:59:03.106Z,9.31
2023-05-01T04:00:03.073Z,9.28
2023-05-01T04:01:03.097Z,9.43
2023-05-01T04:02:03.054Z,9.36
2023-05-01T04:03:03.187Z,9.40
2023-05-01T04:04:03.133Z,9.37
2023-05-01T04:05:03.041Z,9.41
2023-05-01T04:06:02.995Z,9.44
2023-05-01T04:07:03.009Z,9.32
2023-05-01T04:08:02.971Z,9.31
2023-05-01T04:09:02.954Z,9.31
2023-05-01T04:10:02.954Z,9.39
2023-05-01T04:11:02.936Z,9.39
2023-05-01T04:12:02.966Z,9.36
2023-05-01T04:13:02.920Z,9.41
2023-05-01T04:14:02.906Z,9.41
2023-05-01T04:15:02.909Z,9.44
2023-05-01T04:16:02.909Z,9.37
2023-05-01T04:17:02.890Z,9.37
2023-05-01T04:18:02.899Z,9.41
2023-05-01T04:19:02.848Z,9.39
2023-05-01T04:20:02.833Z,9.48
2023-05-01T04:21:02.819Z,9.48
2023-05-01T04:22:02.836Z,9.46
2023-05-01T04:23:02.801Z,9.46
2023-05-01T04:24:02.791Z,9.46
2023-05-01T04:25:02.808Z,9.51
2023-05-01T04:26:02.767Z,9.48
2023-05-01T04:27:02.751Z,9.43
2023-05-01T04:28:02.776Z,9.41
2023-05-01T04:29:02.751Z,9.47
2023-05-01T04:30:02.719Z,9.47
2023-05-01T04:31:02.787Z,9.40
2023-05-01T04:32:02.766Z,9.47
2023-05-01T04:33:02.745Z,9.48
2023-05-01T04:34:02.676Z,9.43
2023-05-01T04:35:04.127Z,9.40
2023-05-01T04:36:02.652Z,9.43
2023-05-01T04:37:02.648Z,9.50
2023-05-01T04:38:02.667Z,9.47
2023-05-01T04:39:02.622Z,9.47
2023-05-01T04:40:02.615Z,9.46
2023-05-01T04:41:02.617Z,9.46
2023-05-01T04:42:02.585Z,9.47
2023-05-01T04:43:02.608Z,9.44
2023-05-01T04:44:02.573Z,9.46
2023-05-01T04:45:02.558Z,9.39
2023-05-01T04:46:02.547Z,9.41
2023-05-01T04:47:02.723Z,9.46
2023-05-01T04:48:02.571Z,9.39
2023-05-01T04:49:02.533Z,9.44
2023-05-01T04:50:02.501Z,9.47
2023-05-01T04:51:02.488Z,9.46
2023-05-01T04:52:02.472Z,9.44
2023-05-01T04:53:02.481Z,9.56
2023-05-01T04:54:02.473Z,9.54
2023-05-01T04:55:02.450Z,9.48
2023-05-01T04:56:02.435Z,9.44
2023-05-01T04:57:02.414Z,9.40
2023-05-01T04:58:02.434Z,9.46
2023-05-01T04:59:02.419Z,9.43
2023-05-01T05:00:02.393Z,9.50
2023-05-01T05:01:02.412Z,9.47
2023-05-01T05:02:02.622Z,9.43
2023-05-01T05:03:02.535Z,9.46
2023-05-01T05:04:02.505Z,9.50
2023-05-01T05:05:02.329Z,9.50
2023-05-01T05:06:02.350Z,9.55
2023-05-01T05:07:02.303Z,9.66
2023-05-01T05:08:02.298Z,9.64
2023-05-01T05:09:02.305Z,9.64
2023-05-01T05:10:02.282Z,9.66
2023-05-01T05:11:02.313Z,9.66
2023-05-01T05:12:02.252Z,9.72
2023-05-01T05:13:02.262Z,9.82
2023-05-01T05:14:02.236Z,9.76
2023-05-01T05:15:02.212Z,9.80
2023-05-01T05:16:02.240Z,9.82
2023-05-01T05:17:02.205Z,9.79
2023-05-01T05:18:02.384Z,9.80
2023-05-01T05:19:02.214Z,9.83
2023-05-01T05:20:02.162Z,9.82
2023-05-01T05:21:02.162Z,9.82
2023-05-01T05:22:02.148Z,9.83
2023-05-01T05:23:02.155Z,9.94
2023-05-01T05:24:02.147Z,9.94
2023-05-01T05:25:02.137Z,9.92
2023-05-01T05:26:02.105Z,9.95
2023-05-01T05:27:02.081Z,9.95
2023-05-01T05:28:02.155Z,10.02
2023-05-01T05:29:02.077Z,9.98
2023-05-01T05:30:02.063Z,9.98
2023-05-01T05:31:02.050Z,9.99
2023-05-01T05:32:02.120Z,10.07
2023-05-01T05:33:02.069Z,10.17
2023-05-01T05:34:02.013Z,10.28
2023-05-01T05:35:02.039Z,10.28
2023-05-01T05:36:01.985Z,10.25
2023-05-01T05:37:01.976Z,10.23
2023-05-01T05:38:01.962Z,10.23
2023-05-01T05:39:02.035Z,10.22
2023-05-01T05:40:01.979Z,10.23
2023-05-01T05:41:01.936Z,10.15
2023-05-01T05:42:01.918Z,10.01
2023-05-01T05:43:01.948Z,10.05
2023-05-01T05:44:01.898Z,10.16
2023-05-01T05:45:01.936Z,10.07
2023-05-01T05:46:02.045Z,10.25
2023-05-01T05:47:01.869Z,10.12
2023-05-01T05:48:01.935Z,10.23
2023-05-01T05:49:01.836Z,10.19
2023-05-01T05:50:01.841Z,10.25
2023-05-01T05:51:01.839Z,10.23
2023-05-01T05:52:01.810Z,10.30
2023-05-01T05:53:01.797Z,10.25
2023-05-01T05:54:01.786Z,10.22
2023-05-01T05:55:01.774Z,10.28
2023-05-01T05:56:01.780Z,10.25
2023-05-01T05:57:01.766Z,10.33
2023-05-01T05:58:01.783Z,10.33
2023-05-01T05:59:01.731Z,10.35
2023-05-01T06:00:01.717Z,10.35
2023-05-01T06:01:01.727Z,10.44
2023-05-01T06:02:01.715Z,10.35
2023-05-01T06:03:01.809Z,10.38
2023-05-01T06:04:01.694Z,10.44
2023-05-01T06:05:01.742Z,10.41
2023-05-01T06:06:01.867Z,10.56
2023-05-01T06:07:01.896Z,10.60
2023-05-01T06:08:01.652Z,10.71
2023-05-01T06:09:01.633Z,10.89
2023-05-01T06:10:01.637Z,10.82
2023-05-01T06:11:01.599Z,10.86
2023-05-01T06:12:01.588Z,11.18
2023-05-01T06:13:07.744Z,11.48
2023-05-01T06:14:02.578Z,11.70
2023-05-01T06:15:01.559Z,11.90
2023-05-01T06:16:01.620Z,11.99
2023-05-01T06:17:01.532Z,12.12
2023-05-01T06:18:01.565Z,12.06
2023-05-01T06:19:01.522Z,12.13
2023-05-01T06:20:01.510Z,12.47
2023-05-01T06:21:01.488Z,12.67
2023-05-01T06:22:01.472Z,12.90
2023-05-01T06:23:01.606Z,13.13
2023-05-01T06:24:01.462Z,13.27
2023-05-01T06:25:01.475Z,13.37
2023-05-01T06:26:01.430Z,13.52
2023-05-01T06:27:01.600Z,13.65
2023-05-01T06:28:01.407Z,13.65
2023-05-01T06:29:01.398Z,13.87
2023-05-01T06:30:01.384Z,14.00
2023-05-01T06:31:01.426Z,14.15
2023-05-01T06:32:01.400Z,14.05
2023-05-01T06:33:01.388Z,14.03
2023-05-01T06:34:01.338Z,13.93
2023-05-01T06:35:01.326Z,13.71
2023-05-01T06:36:01.339Z,13.44
2023-05-01T06:37:01.318Z,13.44
2023-05-01T06:38:01.289Z,13.44
2023-05-01T06:39:01.302Z,13.39
2023-05-01T06:40:01.267Z,13.27
2023-05-01T06:41:01.275Z,13.20
2023-05-01T06:42:01.461Z,13.16
2023-05-01T06:43:01.242Z,13.03
2023-05-01T06:44:01.221Z,12.87
2023-05-01T06:45:01.226Z,12.83
2023-05-01T06:46:01.227Z,12.90
2023-05-01T06:47:01.236Z,12.78
2023-05-01T06:48:01.205Z,12.60
2023-05-01T06:49:01.175Z,12.47
2023-05-01T06:50:02.891Z,12.31
2023-05-01T06:51:01.146Z,12.24
2023-05-01T06:52:01.135Z,12.17
2023-05-01T06:53:01.139Z,12.20
2023-05-01T06:54:01.114Z,12.15
2023-05-01T06:55:01.145Z,12.09
2023-05-01T06:56:01.089Z,12.03
2023-05-01T06:57:01.107Z,12.09
2023-05-01T06:58:04.858Z,12.09
2023-05-01T06:59:02.062Z,12.04
2023-05-01T07:00:01.044Z,11.99
2023-05-01T07:01:01.119Z,12.02
2023-05-01T07:02:01.070Z,11.99
2023-05-01T07:03:01.084Z,11.88
2023-05-01T07:04:01.000Z,11.86
2023-05-01T07:05:01.000Z,11.88
2023-05-01T07:06:01.056Z,11.94
2023-05-01T07:07:01.015Z,11.88
2023-05-01T07:08:01.876Z,11.87
2023-05-01T07:09:00.967Z,11.86
2023-05-01T07:10:00.932Z,11.87
2023-05-01T07:11:01.026Z,11.84
2023-05-01T07:12:00.916Z,11.91
2023-05-01T07:13:00.938Z,11.97
2023-05-01T07:14:00.908Z,12.12
2023-05-01T07:15:00.907Z,12.06
2023-05-01T07:16:00.893Z,12.07
2023-05-01T07:17:01.371Z,12.12
2023-05-01T07:18:00.913Z,12.04
2023-05-01T07:19:00.874Z,12.07
2023-05-01T07:20:00.858Z,12.09
2023-05-01T07:21:00.831Z,12.13
2023-05-01T07:22:00.827Z,12.09
2023-05-01T07:23:00.794Z,12.20
2023-05-01T07:24:00.783Z,12.21
2023-05-01T07:25:00.780Z,12.21
2023-05-01T07:26:00.756Z,12.15
2023-05-01T07:27:00.790Z,12.17
2023-05-01T07:28:00.779Z,12.20
2023-05-01T07:29:00.778Z,12.21
2023-05-01T07:30:00.724Z,12.06
2023-05-01T07:31:00.709Z,12.00
2023-05-01T07:32:00.751Z,12.00
2023-05-01T07:33:00.705Z,12.10
2023-05-01T07:34:00.700Z,12.00
2023-05-01T07:35:00.671Z,12.00
2023-05-01T07:36:00.660Z,12.02
2023-05-01T07:37:00.651Z,12.06
2023-05-01T07:38:00.654Z,12.09
2023-05-01T07:39:00.642Z,12.20
2023-05-01T07:40:00.601Z,12.10
2023-05-01T07:41:01.189Z,12.15
2023-05-01T07:42:00.584Z,12.21
2023-05-01T07:43:00.626Z,12.29
2023-05-01T07:44:00.563Z,12.31
2023-05-01T07:45:00.554Z,12.42
2023-05-01T07:46:00.822Z,12.43
2023-05-01T07:47:00.529Z,12.54
2023-05-01T07:48:00.546Z,12.57
2023-05-01T07:49:00.515Z,12.61
2023-05-01T07:50:00.491Z,12.65
2023-05-01T07:51:00.496Z,12.65
2023-05-01T07:52:00.465Z,12.72
2023-05-01T07:53:00.465Z,12.67
2023-05-01T07:54:00.443Z,12.70
2023-05-01T07:55:00.454Z,12.68
2023-05-01T07:56:00.432Z,12.72
2023-05-01T07:57:00.434Z,12.70
2023-05-01T07:58:00.426Z,12.82
2023-05-01T07:59:00.416Z,12.93
2023-05-01T08:00:00.381Z,12.95
2023-05-01T08:01:00.366Z,12.97
2023-05-01T08:02:00.454Z,12.94
2023-05-01T08:03:00.481Z,12.83
2023-05-01T08:04:00.412Z,12.83
2023-05-01T08:05:00.477Z,12.87
2023-05-01T08:06:00.423Z,12.91
2023-05-01T08:07:00.311Z,12.94
2023-05-01T08:08:00.293Z,12.90
2023-05-01T08:09:00.291Z,12.93
2023-05-01T08:10:00.661Z,13.00
2023-05-01T08:11:00.263Z,13.04
2023-05-01T08:12:00.277Z,13.11
2023-05-01T08:13:00.237Z,13.01
2023-05-01T08:14:00.222Z,13.11
2023-05-01T08:15:00.249Z,13.15
2023-05-01T08:16:00.264Z,13.22
2023-05-01T08:17:00.192Z,13.27
2023-05-01T08:18:00.288Z,13.15
2023-05-01T08:19:00.170Z,13.37
2023-05-01T08:20:00.195Z,13.38
2023-05-01T08:21:00.158Z,13.41
2023-05-01T08:22:00.167Z,13.44
2023-05-01T08:23:00.139Z,13.54
2023-05-01T08:24:00.150Z,13.54
2023-05-01T08:25:00.165Z,13.59
2023-05-01T08:26:00.116Z,13.56
2023-05-01T08:27:00.130Z,13.65
2023-05-01T08:28:00.086Z,13.79
2023-05-01T08:29:00.089Z,13.77
2023-05-01T08:30:00.053Z,13.95
2023-05-01T08:31:00.139Z,14.15
2023-05-01T08:32:00.120Z,14.29
2023-05-01T08:33:00.061Z,14.36
2023-05-01T08:34:00.014Z,14.44
2023-05-01T08:35:00.004Z,14.45
2023-05-01T08:35:59.993Z,14.47
2023-05-01T08:36:59.984Z,14.36
2023-05-01T08:37:59.966Z,14.32
2023-05-01T08:38:59.971Z,14.28
2023-05-01T08:39:59.946Z,14.32
2023-05-01T08:40:59.947Z,14.37
2023-05-01T08:41:59.917Z,14.44
2023-05-01T08:42:59.914Z,14.45
2023-05-01T08:43:59.909Z,14.55
2023-05-01T08:44:59.907Z,14.54
2023-05-01T08:45:59.874Z,14.60
2023-05-01T08:46:59.927Z,14.70
2023-05-01T08:47:59.972Z,14.99
2023-05-01T08:48:59.854Z,15.22
2023-05-01T08:49:59.866Z,15.33
2023-05-01T08:50:59.829Z,15.44
2023-05-01T08:51:59.808Z,15.59
2023-05-01T08:52:59.794Z,15.55
2023-05-01T08:53:59.783Z,15.65
2023-05-01T08:54:59.784Z,15.84
2023-05-01T08:55:59.758Z,15.88
2023-05-01T08:56:59.761Z,15.90
2023-05-01T08:57:59.752Z,15.86
2023-05-01T08:58:59.764Z,15.83
2023-05-01T08:59:59.714Z,15.73
2023-05-01T09:00:59.734Z,15.73
2023-05-01T09:01:59.730Z,15.94
2023-05-01T09:02:59.756Z,16.04
2023-05-01T09:03:59.700Z,16.12
2023-05-01T09:04:59.657Z,16.36
2023-05-01T09:05:59.717Z,16.38
2023-05-01T09:06:59.637Z,16.36
2023-05-01T09:07:59.619Z,16.31
2023-05-01T09:08:59.628Z,16.47
2023-05-01T09:09:59.609Z,16.51
2023-05-01T09:10:59.612Z,16.69
2023-05-01T09:11:59.575Z,16.78
2023-05-01T09:12:59.573Z,16.91
2023-05-01T09:13:59.554Z,16.93
2023-05-01T09:14:59.555Z,17.08
2023-05-01T09:15:59.570Z,17.14
2023-05-01T09:16:59.521Z,17.24
2023-05-01T09:18:02.321Z,17.39
2023-05-01T09:18:59.524Z,17.42
2023-05-01T09:19:59.490Z,17.57
2023-05-01T09:20:59.480Z,17.57
2023-05-01T09:21:59.488Z,17.64
2023-05-01T09:22:59.456Z,17.57
2023-05-01T09:23:59.441Z,17.59
2023-05-01T09:24:59.450Z,17.71
2023-05-01T09:25:59.421Z,17.80
2023-05-01T09:26:59.448Z,17.86
2023-05-01T09:27:59.411Z,17.95
2023-05-01T09:28:59.394Z,18.18
2023-05-01T09:29:59.529Z,18.22
2023-05-01T09:30:59.368Z,18.23
2023-05-01T09:31:59.383Z,18.45
2023-05-01T09:32:59.389Z,18.41
2023-05-01T09:33:59.357Z,18.44
2023-05-01T09:34:59.341Z,18.52
2023-05-01T09:35:59.309Z,18.44
2023-05-01T09:36:59.317Z,18.50
2023-05-01T09:37:59.287Z,18.45
2023-05-01T09:38:59.281Z,18.53
2023-05-01T09:39:59.332Z,18.49
2023-05-01T09:40:59.256Z,18.58
2023-05-01T09:41:59.268Z,18.74
2023-05-01T09:42:59.235Z,18.71
2023-05-01T09:43:59.231Z,18.80
2023-05-01T09:44:59.218Z,18.74
2023-05-01T09:45:59.264Z,18.73
2023-05-01T09:46:59.208Z,18.78
2023-05-01T09:47:59.215Z,18.77
2023-05-01T09:48:59.231Z,18.90
2023-05-01T09:49:59.421Z,18.92
2023-05-01T09:50:59.273Z,18.89
2023-05-01T09:51:59.142Z,19.08
2023-05-01T09:52:59.143Z,19.24
2023-05-01T09:53:59.112Z,19.33
2023-05-01T09:54:59.104Z,19.39
2023-05-01T09:55:59.086Z,19.44
2023-05-01T09:56:59.081Z,19.47
2023-05-01T09:57:59.096Z,19.49
2023-05-01T09:58:59.058Z,19.47
2023-05-01T09:59:59.048Z,19.69
2023-05-01T10:00:59.075Z,19.66
2023-05-01T10:01:59.101Z,19.77
2023-05-01T10:02:59.092Z,19.82
2023-05-01T10:03:59.129Z,19.76
2023-05-01T10:04:59.006Z,19.85
2023-05-01T10:05:58.997Z,19.85
2023-05-01T10:06:59.100Z,19.81
2023-05-01T10:07:58.962Z,19.77
2023-05-01T10:08:58.994Z,19.70
2023-05-01T10:10:01.466Z,19.64
2023-05-01T10:10:58.931Z,19.81
2023-05-01T10:11:58.940Z,19.84
2023-05-01T10:12:58.906Z,19.86
2023-05-01T10:13:58.894Z,19.81
2023-05-01T10:15:00.551Z,19.70
2023-05-01T10:15:58.890Z,19.71
2023-05-01T10:16:58.890Z,19.71
2023-05-01T10:17:58.928Z,19.71
2023-05-01T10:18:58.884Z,19.82
2023-05-01T10:19:59.167Z,19.86
2023-05-01T10:20:58.898Z,19.94
2023-05-01T10:21:58.829Z,19.85
2023-05-01T10:22:58.815Z,19.89
2023-05-01T10:23:58.784Z,19.85
2023-05-01T10:24:58.777Z,19.81
2023-05-01T10:25:59.829Z,19.84
2023-05-01T10:26:58.746Z,19.92
2023-05-01T10:27:58.745Z,19.84
2023-05-01T10:28:58.745Z,19.94
2023-05-01T10:29:59.033Z,19.88
2023-05-01T10:30:58.765Z,19.82
2023-05-01T10:31:58.795Z,19.84
2023-05-01T10:32:58.811Z,20.02
2023-05-01T10:33:58.683Z,19.89
2023-05-01T10:34:58.855Z,19.96
2023-05-01T10:35:58.686Z,20.07
2023-05-01T10:36:58.647Z,20.14
2023-05-01T10:37:58.636Z,20.09
2023-05-01T10:38:58.632Z,20.26
2023-05-01T10:39:58.623Z,20.39
2023-05-01T10:40:58.616Z,20.39
2023-05-01T10:41:58.672Z,20.26
2023-05-01T10:42:58.566Z,20.41
2023-05-01T10:43:58.565Z,20.24
2023-05-01T10:44:58.739Z,20.22
2023-05-01T10:45:58.610Z,20.03
2023-05-01T10:46:58.630Z,20.10
2023-05-01T10:47:58.537Z,20.11
2023-05-01T10:48:58.507Z,20.24
2023-05-01T10:49:58.489Z,20.26
2023-05-01T10:50:58.636Z,20.48
2023-05-01T10:51:58.510Z,20.58
2023-05-01T10:52:58.454Z,20.55
2023-05-01T10:53:58.448Z,20.59
2023-05-01T10:54:58.684Z,20.60
2023-05-01T10:55:58.424Z,20.60
2023-05-01T10:56:58.450Z,20.75
2023-05-01T10:57:58.401Z,20.69
2023-05-01T10:58:58.386Z,20.66
2023-05-01T10:59:58.378Z,20.65
2023-05-01T11:00:58.366Z,20.75
2023-05-01T11:01:58.435Z,20.78
2023-05-01T11:02:58.394Z,20.97
2023-05-01T11:03:58.339Z,21.02
2023-05-01T11:04:58.499Z,21.15
2023-05-01T11:05:58.444Z,21.22
2023-05-01T11:06:58.329Z,21.27
2023-05-01T11:07:58.293Z,21.39
2023-05-01T11:08:58.297Z,21.42
2023-05-01T11:09:58.277Z,21.61
2023-05-01T11:10:58.283Z,21.52
2023-05-01T11:11:58.271Z,21.43
2023-05-01T11:12:58.252Z,21.42
2023-05-01T11:13:58.242Z,21.43
2023-05-01T11:14:58.467Z,21.24
2023-05-01T11:15:58.249Z,21.18
2023-05-01T11:16:58.217Z,21.20
2023-05-01T11:17:58.246Z,21.27
2023-05-01T11:18:58.167Z,21.27
2023-05-01T11:19:58.193Z,21.15
2023-05-01T11:20:58.157Z,20.97
2023-05-01T11:21:58.139Z,20.85
2023-05-01T11:22:58.143Z,20.90
2023-05-01T11:23:58.118Z,20.84
2023-05-01T11:24:58.451Z,20.92
2023-05-01T11:25:58.093Z,20.96
2023-05-01T11:26:58.122Z,20.97
2023-05-01T11:27:58.074Z,20.96
2023-05-01T11:28:58.056Z,20.99
2023-05-01T11:29:58.048Z,20.67
2023-05-01T11:30:58.045Z,20.62
2023-05-01T11:31:58.089Z,20.70
2023-05-01T11:32:58.062Z,20.93
2023-05-01T11:33:58.005Z,21.00
2023-05-01T11:34:58.350Z,21.29
2023-05-01T11:35:57.979Z,21.29
2023-05-01T11:36:57.994Z,21.39
2023-05-01T11:37:57.958Z,21.46
2023-05-01T11:38:57.965Z,21.37
2023-05-01T11:39:57.953Z,21.48
2023-05-01T11:40:57.960Z,21.40
2023-05-01T11:41:57.992Z,21.43
2023-05-01T11:42:57.961Z,21.30
2023-05-01T11:43:57.957Z,21.29
2023-05-01T11:44:58.098Z,21.27
2023-05-01T11:45:57.945Z,21.36
2023-05-01T11:46:57.868Z,21.18
2023-05-01T11:47:57.887Z,21.15
2023-05-01T11:48:57.834Z,21.20
2023-05-01T11:49:57.832Z,21.02
2023-05-01T11:50:57.809Z,21.05
2023-05-01T11:51:57.827Z,21.14
2023-05-01T11:52:57.813Z,21.12
2023-05-01T11:53:57.786Z,20.99
2023-05-01T11:54:57.772Z,20.93
2023-05-01T11:55:57.762Z,20.87
2023-05-01T11:56:57.748Z,20.85
2023-05-01T11:57:57.749Z,20.72
2023-05-01T11:58:57.792Z,20.69
2023-05-01T11:59:57.727Z,20.72
2023-05-01T12:00:57.702Z,20.84
2023-05-01T12:01:57.750Z,20.99
2023-05-01T12:02:57.825Z,21.24
2023-05-01T12:03:57.832Z,21.43
2023-05-01T12:04:57.895Z,21.69
2023-05-01T12:05:57.698Z,21.89
2023-05-01T12:06:57.639Z,21.98
2023-05-01T12:07:57.628Z,21.95
2023-05-01T12:08:57.628Z,22.00
2023-05-01T12:09:57.639Z,22.08
2023-05-01T12:10:57.663Z,22.13
2023-05-01T12:11:57.590Z,21.98
2023-05-01T12:12:57.576Z,21.92
2023-05-01T12:13:57.577Z,21.79
2023-05-01T12:14:57.868Z,21.88
2023-05-01T12:15:57.550Z,21.77
2023-05-01T12:16:57.559Z,21.60
2023-05-01T12:17:57.588Z,21.52
2023-05-01T12:18:57.532Z,21.45
2023-05-01T12:19:57.509Z,21.39
2023-05-01T12:20:57.490Z,21.45
2023-05-01T12:21:57.480Z,21.43
2023-05-01T12:22:57.484Z,21.48
2023-05-01T12:23:57.478Z,21.40
2023-05-01T12:24:57.568Z,21.32
2023-05-01T12:25:57.484Z,21.24
2023-05-01T12:26:57.433Z,21.07
2023-05-01T12:27:57.417Z,21.14
2023-05-01T12:28:57.406Z,21.24
2023-05-01T12:29:57.443Z,21.21
2023-05-01T12:30:57.391Z,21.24
2023-05-01T12:31:57.410Z,21.33
2023-05-01T12:32:57.384Z,21.36
2023-05-01T12:33:57.351Z,21.33
2023-05-01T12:34:57.569Z,21.46
2023-05-01T12:35:57.339Z,21.51
2023-05-01T12:36:57.324Z,21.69
2023-05-01T12:37:57.316Z,21.80
2023-05-01T12:38:57.324Z,21.88
2023-05-01T12:39:57.294Z,21.96
2023-05-01T12:40:57.274Z,22.06
2023-05-01T12:41:57.252Z,22.11
2023-05-01T12:42:57.258Z,22.15
2023-05-01T12:43:57.230Z,22.10
2023-05-01T12:44:57.390Z,21.98
2023-05-01T12:45:57.277Z,21.79
2023-05-01T12:46:57.419Z,21.73
2023-05-01T12:47:57.248Z,21.61
2023-05-01T12:48:57.165Z,21.60
2023-05-01T12:49:57.442Z,21.61
2023-05-01T12:50:57.202Z,21.66
2023-05-01T12:51:57.198Z,21.62
2023-05-01T12:52:57.122Z,21.69
2023-05-01T12:53:57.137Z,21.70
2023-05-01T12:54:57.325Z,21.69
2023-05-01T12:55:57.122Z,21.83
2023-05-01T12:56:57.095Z,21.95
2023-05-01T12:57:57.067Z,22.00
2023-05-01T12:58:57.074Z,22.08
2023-05-01T12:59:57.175Z,21.96
2023-05-01T13:00:57.035Z,22.07
2023-05-01T13:01:57.132Z,21.96
2023-05-01T13:02:57.108Z,21.85